sensor_id;sensor_type;location;lat;lon;timestamp;temperature;humidity
48208;DHT22;33997;53.278;9.708;2023-07-08T00:01:35;16.90;73.90
48208;DHT22;33997;53.278;9.708;2023-07-08T00:04:01;16.90;73.30
48208;DHT22;33997;53.278;9.708;2023-07-08T00:06:29;17.00;73.20
48208;DHT22;33997;53.278;9.708;2023-07-08T00:08:54;16.90;73.70
48208;DHT22;33997;53.278;9.708;2023-07-08T00:11:20;16.90;73.20
48208;DHT22;33997;53.278;9.708;2023-07-08T00:13:46;16.80;74.00
48208;DHT22;33997;53.278;9.708;2023-07-08T00:16:14;16.80;73.80
48208;DHT22;33997;53.278;9.708;2023-07-08T00:18:40;16.70;74.10
48208;DHT22;33997;53.278;9.708;2023-07-08T00:21:10;16.70;74.00
48208;DHT22;33997;53.278;9.708;2023-07-08T00:23:44;16.60;74.30
48208;DHT22;33997;53.278;9.708;2023-07-08T00:26:21;16.60;74.30
48208;DHT22;33997;53.278;9.708;2023-07-08T00:28:48;16.50;74.60
48208;DHT22;33997;53.278;9.708;2023-07-08T00:31:13;16.50;74.60
48208;DHT22;33997;53.278;9.708;2023-07-08T00:33:39;16.50;74.50
48208;DHT22;33997;53.278;9.708;2023-07-08T00:36:15;16.50;74.70
48208;DHT22;33997;53.278;9.708;2023-07-08T00:38:42;16.50;74.20
48208;DHT22;33997;53.278;9.708;2023-07-08T00:41:35;16.60;74.00
48208;DHT22;33997;53.278;9.708;2023-07-08T00:44:02;16.60;73.90
48208;DHT22;33997;53.278;9.708;2023-07-08T00:52:20;16.80;73.30
48208;DHT22;33997;53.278;9.708;2023-07-08T00:54:48;16.70;73.60
48208;DHT22;33997;53.278;9.708;2023-07-08T00:57:14;16.60;73.70
48208;DHT22;33997;53.278;9.708;2023-07-08T00:59:47;16.60;73.70
48208;DHT22;33997;53.278;9.708;2023-07-08T01:02:17;16.70;73.60
48208;DHT22;33997;53.278;9.708;2023-07-08T01:05:12;16.60;73.80
48208;DHT22;33997;53.278;9.708;2023-07-08T01:07:38;16.60;73.90
48208;DHT22;33997;53.278;9.708;2023-07-08T01:10:12;16.50;74.20
48208;DHT22;33997;53.278;9.708;2023-07-08T01:12:43;16.60;74.20
48208;DHT22;33997;53.278;9.708;2023-07-08T01:15:09;16.60;74.10
48208;DHT22;33997;53.278;9.708;2023-07-08T01:17:35;16.50;74.10
48208;DHT22;33997;53.278;9.708;2023-07-08T01:20:03;16.50;74.20
48208;DHT22;33997;53.278;9.708;2023-07-08T01:22:39;16.50;74.30
48208;DHT22;33997;53.278;9.708;2023-07-08T01:25:06;16.50;74.20
48208;DHT22;33997;53.278;9.708;2023-07-08T01:27:35;16.50;73.90
48208;DHT22;33997;53.278;9.708;2023-07-08T01:30:02;16.60;73.60
48208;DHT22;33997;53.278;9.708;2023-07-08T01:32:28;16.70;72.80
48208;DHT22;33997;53.278;9.708;2023-07-08T01:34:56;16.70;72.70
48208;DHT22;33997;53.278;9.708;2023-07-08T01:37:49;16.60;73.40
48208;DHT22;33997;53.278;9.708;2023-07-08T01:42:45;16.50;73.70
48208;DHT22;33997;53.278;9.708;2023-07-08T01:45:12;16.40;74.00
48208;DHT22;33997;53.278;9.708;2023-07-08T01:47:40;16.50;73.80
48208;DHT22;33997;53.278;9.708;2023-07-08T01:50:07;16.40;74.10
48208;DHT22;33997;53.278;9.708;2023-07-08T01:52:34;16.30;74.40
48208;DHT22;33997;53.278;9.708;2023-07-08T01:55:00;16.30;74.70
48208;DHT22;33997;53.278;9.708;2023-07-08T01:57:25;16.30;74.40
48208;DHT22;33997;53.278;9.708;2023-07-08T01:59:51;16.30;74.70
48208;DHT22;33997;53.278;9.708;2023-07-08T02:02:16;16.20;75.10
48208;DHT22;33997;53.278;9.708;2023-07-08T02:04:42;16.10;75.20
48208;DHT22;33997;53.278;9.708;2023-07-08T02:07:07;16.20;75.00
48208;DHT22;33997;53.278;9.708;2023-07-08T02:09:33;16.10;75.20
48208;DHT22;33997;53.278;9.708;2023-07-08T02:11:58;16.00;75.60
48208;DHT22;33997;53.278;9.708;2023-07-08T02:14:24;16.00;75.60
48208;DHT22;33997;53.278;9.708;2023-07-08T02:16:49;16.00;75.70
48208;DHT22;33997;53.278;9.708;2023-07-08T02:19:15;16.10;75.70
48208;DHT22;33997;53.278;9.708;2023-07-08T02:21:40;16.10;76.00
48208;DHT22;33997;53.278;9.708;2023-07-08T02:24:07;16.00;76.40
48208;DHT22;33997;53.278;9.708;2023-07-08T02:26:32;16.00;76.30
48208;DHT22;33997;53.278;9.708;2023-07-08T02:28:58;16.00;76.30
48208;DHT22;33997;53.278;9.708;2023-07-08T02:31:24;16.10;75.90
48208;DHT22;33997;53.278;9.708;2023-07-08T02:33:51;16.00;76.20
48208;DHT22;33997;53.278;9.708;2023-07-08T02:36:17;16.00;76.50
48208;DHT22;33997;53.278;9.708;2023-07-08T02:38:42;16.00;76.70
48208;DHT22;33997;53.278;9.708;2023-07-08T02:41:07;15.90;76.90
48208;DHT22;33997;53.278;9.708;2023-07-08T02:43:33;15.90;77.30
48208;DHT22;33997;53.278;9.708;2023-07-08T02:45:58;15.80;77.50
48208;DHT22;33997;53.278;9.708;2023-07-08T02:48:24;15.80;77.60
48208;DHT22;33997;53.278;9.708;2023-07-08T02:50:49;15.90;77.00
48208;DHT22;33997;53.278;9.708;2023-07-08T02:53:15;15.80;77.70
48208;DHT22;33997;53.278;9.708;2023-07-08T02:55:40;15.90;77.40
48208;DHT22;33997;53.278;9.708;2023-07-08T02:58:08;16.00;77.10
48208;DHT22;33997;53.278;9.708;2023-07-08T03:00:33;15.80;77.60
48208;DHT22;33997;53.278;9.708;2023-07-08T03:02:59;15.80;78.00
48208;DHT22;33997;53.278;9.708;2023-07-08T03:05:26;15.70;78.30
48208;DHT22;33997;53.278;9.708;2023-07-08T03:07:51;15.70;78.20
48208;DHT22;33997;53.278;9.708;2023-07-08T03:10:17;15.70;78.10
48208;DHT22;33997;53.278;9.708;2023-07-08T03:12:42;15.80;78.40
48208;DHT22;33997;53.278;9.708;2023-07-08T03:15:08;15.70;78.20
48208;DHT22;33997;53.278;9.708;2023-07-08T03:17:33;15.70;78.20
48208;DHT22;33997;53.278;9.708;2023-07-08T03:19:59;15.80;78.20
48208;DHT22;33997;53.278;9.708;2023-07-08T03:22:24;15.80;78.20
48208;DHT22;33997;53.278;9.708;2023-07-08T03:24:50;15.70;78.50
48208;DHT22;33997;53.278;9.708;2023-07-08T03:27:16;15.70;78.60
48208;DHT22;33997;53.278;9.708;2023-07-08T03:29:42;15.80;78.30
48208;DHT22;33997;53.278;9.708;2023-07-08T03:32:11;15.80;78.60
48208;DHT22;33997;53.278;9.708;2023-07-08T03:34:36;15.80;78.50
48208;DHT22;33997;53.278;9.708;2023-07-08T03:37:02;15.80;78.80
48208;DHT22;33997;53.278;9.708;2023-07-08T03:39:28;15.80;78.60
48208;DHT22;33997;53.278;9.708;2023-07-08T03:41:53;15.80;78.80
48208;DHT22;33997;53.278;9.708;2023-07-08T03:44:19;15.90;78.30
48208;DHT22;33997;53.278;9.708;2023-07-08T03:46:47;16.00;77.80
48208;DHT22;33997;53.278;9.708;2023-07-08T03:49:15;16.00;77.90
48208;DHT22;33997;53.278;9.708;2023-07-08T03:51:41;16.00;78.00
48208;DHT22;33997;53.278;9.708;2023-07-08T03:54:13;16.00;77.90
48208;DHT22;33997;53.278;9.708;2023-07-08T03:56:38;16.00;78.20
48208;DHT22;33997;53.278;9.708;2023-07-08T03:59:04;16.00;77.90
48208;DHT22;33997;53.278;9.708;2023-07-08T04:01:30;16.10;77.80
48208;DHT22;33997;53.278;9.708;2023-07-08T04:03:56;16.10;78.10
48208;DHT22;33997;53.278;9.708;2023-07-08T04:06:23;16.00;78.20
48208;DHT22;33997;53.278;9.708;2023-07-08T04:08:48;16.00;78.70
48208;DHT22;33997;53.278;9.708;2023-07-08T04:11:19;16.00;78.80
48208;DHT22;33997;53.278;9.708;2023-07-08T04:13:45;16.00;78.70
48208;DHT22;33997;53.278;9.708;2023-07-08T04:16:23;16.10;78.40
48208;DHT22;33997;53.278;9.708;2023-07-08T04:18:49;16.10;78.20
48208;DHT22;33997;53.278;9.708;2023-07-08T04:21:18;16.20;78.40
48208;DHT22;33997;53.278;9.708;2023-07-08T04:23:44;16.10;78.80
48208;DHT22;33997;53.278;9.708;2023-07-08T04:26:09;16.20;78.40
48208;DHT22;33997;53.278;9.708;2023-07-08T04:28:35;16.20;78.20
48208;DHT22;33997;53.278;9.708;2023-07-08T04:31:01;16.30;78.00
48208;DHT22;33997;53.278;9.708;2023-07-08T04:33:27;16.40;77.70
48208;DHT22;33997;53.278;9.708;2023-07-08T04:35:53;16.30;78.20
48208;DHT22;33997;53.278;9.708;2023-07-08T04:38:22;16.30;78.70
48208;DHT22;33997;53.278;9.708;2023-07-08T04:40:49;16.40;77.90
48208;DHT22;33997;53.278;9.708;2023-07-08T04:43:16;16.50;77.90
48208;DHT22;33997;53.278;9.708;2023-07-08T04:45:44;16.50;77.80
48208;DHT22;33997;53.278;9.708;2023-07-08T04:48:14;16.60;77.00
48208;DHT22;33997;53.278;9.708;2023-07-08T04:50:44;16.70;77.00
48208;DHT22;33997;53.278;9.708;2023-07-08T04:53:11;16.70;77.20
48208;DHT22;33997;53.278;9.708;2023-07-08T04:55:39;16.70;77.60
48208;DHT22;33997;53.278;9.708;2023-07-08T04:58:05;16.80;77.60
48208;DHT22;33997;53.278;9.708;2023-07-08T05:00:30;16.90;77.10
48208;DHT22;33997;53.278;9.708;2023-07-08T05:02:56;16.90;77.30
48208;DHT22;33997;53.278;9.708;2023-07-08T05:05:22;17.00;76.80
48208;DHT22;33997;53.278;9.708;2023-07-08T05:07:47;16.90;77.20
48208;DHT22;33997;53.278;9.708;2023-07-08T05:10:15;16.90;77.60
48208;DHT22;33997;53.278;9.708;2023-07-08T05:12:41;17.00;77.80
48208;DHT22;33997;53.278;9.708;2023-07-08T05:15:06;17.00;77.80
48208;DHT22;33997;53.278;9.708;2023-07-08T05:17:32;17.00;77.80
48208;DHT22;33997;53.278;9.708;2023-07-08T05:19:57;17.10;76.90
48208;DHT22;33997;53.278;9.708;2023-07-08T05:22:26;17.20;76.70
48208;DHT22;33997;53.278;9.708;2023-07-08T05:24:52;17.30;76.50
48208;DHT22;33997;53.278;9.708;2023-07-08T05:27:21;17.40;75.90
48208;DHT22;33997;53.278;9.708;2023-07-08T05:29:47;17.50;75.10
48208;DHT22;33997;53.278;9.708;2023-07-08T05:32:13;17.60;74.80
48208;DHT22;33997;53.278;9.708;2023-07-08T05:34:38;17.70;75.30
48208;DHT22;33997;53.278;9.708;2023-07-08T05:37:04;17.70;74.80
48208;DHT22;33997;53.278;9.708;2023-07-08T05:39:31;17.80;74.50
48208;DHT22;33997;53.278;9.708;2023-07-08T05:41:56;18.00;74.30
48208;DHT22;33997;53.278;9.708;2023-07-08T05:44:22;18.00;74.50
48208;DHT22;33997;53.278;9.708;2023-07-08T05:46:48;18.10;73.50
48208;DHT22;33997;53.278;9.708;2023-07-08T05:49:14;18.20;72.70
48208;DHT22;33997;53.278;9.708;2023-07-08T05:51:39;18.30;72.90
48208;DHT22;33997;53.278;9.708;2023-07-08T05:54:05;18.50;72.30
48208;DHT22;33997;53.278;9.708;2023-07-08T05:56:30;18.50;73.50
48208;DHT22;33997;53.278;9.708;2023-07-08T05:58:56;18.50;72.70
48208;DHT22;33997;53.278;9.708;2023-07-08T06:01:22;18.70;71.90
48208;DHT22;33997;53.278;9.708;2023-07-08T06:03:47;18.80;71.60
48208;DHT22;33997;53.278;9.708;2023-07-08T06:06:13;19.00;71.80
48208;DHT22;33997;53.278;9.708;2023-07-08T06:08:39;19.00;71.00
48208;DHT22;33997;53.278;9.708;2023-07-08T06:11:04;19.20;71.60
48208;DHT22;33997;53.278;9.708;2023-07-08T06:13:30;19.30;69.90
48208;DHT22;33997;53.278;9.708;2023-07-08T06:15:55;19.40;69.20
48208;DHT22;33997;53.278;9.708;2023-07-08T06:18:21;19.50;68.70
48208;DHT22;33997;53.278;9.708;2023-07-08T06:20:54;19.60;69.00
48208;DHT22;33997;53.278;9.708;2023-07-08T06:23:20;19.70;68.30
48208;DHT22;33997;53.278;9.708;2023-07-08T06:25:46;19.80;69.50
48208;DHT22;33997;53.278;9.708;2023-07-08T06:28:11;20.00;68.90
48208;DHT22;33997;53.278;9.708;2023-07-08T06:30:37;20.10;67.90
48208;DHT22;33997;53.278;9.708;2023-07-08T06:33:03;20.20;68.70
48208;DHT22;33997;53.278;9.708;2023-07-08T06:35:29;20.40;65.60
48208;DHT22;33997;53.278;9.708;2023-07-08T06:37:54;20.40;65.40
48208;DHT22;33997;53.278;9.708;2023-07-08T06:40:19;20.50;65.20
48208;DHT22;33997;53.278;9.708;2023-07-08T06:42:45;20.60;66.80
48208;DHT22;33997;53.278;9.708;2023-07-08T06:45:11;20.80;66.50
48208;DHT22;33997;53.278;9.708;2023-07-08T06:47:37;20.90;66.80
48208;DHT22;33997;53.278;9.708;2023-07-08T06:50:02;21.00;66.40
48208;DHT22;33997;53.278;9.708;2023-07-08T06:52:28;21.10;66.00
48208;DHT22;33997;53.278;9.708;2023-07-08T06:55:03;21.20;64.20
48208;DHT22;33997;53.278;9.708;2023-07-08T06:57:28;21.50;66.70
48208;DHT22;33997;53.278;9.708;2023-07-08T06:59:54;21.60;67.20
48208;DHT22;33997;53.278;9.708;2023-07-08T07:02:19;21.80;65.30
48208;DHT22;33997;53.278;9.708;2023-07-08T07:04:45;21.70;62.40
48208;DHT22;33997;53.278;9.708;2023-07-08T07:07:11;22.00;62.50
48208;DHT22;33997;53.278;9.708;2023-07-08T07:09:37;22.10;62.40
48208;DHT22;33997;53.278;9.708;2023-07-08T07:12:05;22.20;61.50
48208;DHT22;33997;53.278;9.708;2023-07-08T07:14:30;22.40;61.70
48208;DHT22;33997;53.278;9.708;2023-07-08T07:16:56;22.50;62.20
48208;DHT22;33997;53.278;9.708;2023-07-08T07:19:21;22.60;61.20
48208;DHT22;33997;53.278;9.708;2023-07-08T07:21:47;22.80;61.00
48208;DHT22;33997;53.278;9.708;2023-07-08T07:24:12;23.00;61.60
48208;DHT22;33997;53.278;9.708;2023-07-08T07:26:38;23.10;63.30
48208;DHT22;33997;53.278;9.708;2023-07-08T07:29:04;23.40;61.90
48208;DHT22;33997;53.278;9.708;2023-07-08T07:31:29;23.40;57.20
48208;DHT22;33997;53.278;9.708;2023-07-08T07:33:56;23.50;57.40
48208;DHT22;33997;53.278;9.708;2023-07-08T07:36:21;23.70;57.70
48208;DHT22;33997;53.278;9.708;2023-07-08T07:38:47;24.00;59.70
48208;DHT22;33997;53.278;9.708;2023-07-08T07:41:12;24.00;57.20
48208;DHT22;33997;53.278;9.708;2023-07-08T07:43:38;24.20;58.90
48208;DHT22;33997;53.278;9.708;2023-07-08T07:46:04;24.30;58.60
48208;DHT22;33997;53.278;9.708;2023-07-08T07:48:31;24.40;57.30
48208;DHT22;33997;53.278;9.708;2023-07-08T07:50:57;24.40;56.70
48208;DHT22;33997;53.278;9.708;2023-07-08T07:53:22;24.50;57.00
48208;DHT22;33997;53.278;9.708;2023-07-08T07:55:48;24.70;58.90
48208;DHT22;33997;53.278;9.708;2023-07-08T07:58:13;24.70;56.70
48208;DHT22;33997;53.278;9.708;2023-07-08T08:00:39;24.90;56.60
48208;DHT22;33997;53.278;9.708;2023-07-08T08:03:04;25.00;55.60
48208;DHT22;33997;53.278;9.708;2023-07-08T08:05:30;25.00;55.60
48208;DHT22;33997;53.278;9.708;2023-07-08T08:07:55;25.20;54.80
48208;DHT22;33997;53.278;9.708;2023-07-08T08:10:21;25.30;54.10
48208;DHT22;33997;53.278;9.708;2023-07-08T08:12:46;25.50;54.90
48208;DHT22;33997;53.278;9.708;2023-07-08T08:15:16;25.50;56.10
48208;DHT22;33997;53.278;9.708;2023-07-08T08:17:41;25.70;56.40
48208;DHT22;33997;53.278;9.708;2023-07-08T08:20:12;25.80;54.60
48208;DHT22;33997;53.278;9.708;2023-07-08T08:22:38;25.80;53.40
48208;DHT22;33997;53.278;9.708;2023-07-08T08:25:03;26.00;52.70
48208;DHT22;33997;53.278;9.708;2023-07-08T08:27:29;26.20;54.00
48208;DHT22;33997;53.278;9.708;2023-07-08T08:29:54;26.10;52.00
48208;DHT22;33997;53.278;9.708;2023-07-08T08:32:20;26.20;54.70
48208;DHT22;33997;53.278;9.708;2023-07-08T08:34:45;26.40;53.00
48208;DHT22;33997;53.278;9.708;2023-07-08T08:37:11;26.40;51.80
48208;DHT22;33997;53.278;9.708;2023-07-08T08:39:37;26.50;53.00
48208;DHT22;33997;53.278;9.708;2023-07-08T08:42:02;26.80;54.20
48208;DHT22;33997;53.278;9.708;2023-07-08T08:44:32;26.60;50.50
48208;DHT22;33997;53.278;9.708;2023-07-08T08:47:25;26.90;52.20
48208;DHT22;33997;53.278;9.708;2023-07-08T08:49:59;26.90;50.30
48208;DHT22;33997;53.278;9.708;2023-07-08T08:52:26;27.00;52.30
48208;DHT22;33997;53.278;9.708;2023-07-08T08:54:51;27.40;53.70
48208;DHT22;33997;53.278;9.708;2023-07-08T08:57:41;27.20;52.40
48208;DHT22;33997;53.278;9.708;2023-07-08T09:00:13;27.50;49.50
48208;DHT22;33997;53.278;9.708;2023-07-08T09:03:04;27.80;53.10
48208;DHT22;33997;53.278;9.708;2023-07-08T09:05:33;27.70;51.50
48208;DHT22;33997;53.278;9.708;2023-07-08T09:08:10;27.90;52.70
48208;DHT22;33997;53.278;9.708;2023-07-08T09:11:15;28.00;49.30
48208;DHT22;33997;53.278;9.708;2023-07-08T09:13:42;28.30;51.10
48208;DHT22;33997;53.278;9.708;2023-07-08T09:16:16;28.40;49.70
48208;DHT22;33997;53.278;9.708;2023-07-08T09:18:59;28.30;51.20
48208;DHT22;33997;53.278;9.708;2023-07-08T09:21:34;28.70;48.80
48208;DHT22;33997;53.278;9.708;2023-07-08T09:24:04;28.70;48.40
48208;DHT22;33997;53.278;9.708;2023-07-08T09:26:33;28.50;47.50
48208;DHT22;33997;53.278;9.708;2023-07-08T09:28:59;29.10;47.90
48208;DHT22;33997;53.278;9.708;2023-07-08T09:31:27;28.90;48.80
48208;DHT22;33997;53.278;9.708;2023-07-08T09:34:04;29.00;48.20
48208;DHT22;33997;53.278;9.708;2023-07-08T09:36:30;29.50;49.60
48208;DHT22;33997;53.278;9.708;2023-07-08T09:38:56;29.50;48.00
48208;DHT22;33997;53.278;9.708;2023-07-08T09:41:33;29.50;45.00
48208;DHT22;33997;53.278;9.708;2023-07-08T09:44:05;29.50;45.00
48208;DHT22;33997;53.278;9.708;2023-07-08T09:46:36;29.50;46.10
48208;DHT22;33997;53.278;9.708;2023-07-08T09:49:16;29.80;45.70
48208;DHT22;33997;53.278;9.708;2023-07-08T09:51:43;29.80;45.00
48208;DHT22;33997;53.278;9.708;2023-07-08T09:54:09;29.80;44.80
48208;DHT22;33997;53.278;9.708;2023-07-08T09:56:35;30.20;45.80
48208;DHT22;33997;53.278;9.708;2023-07-08T09:59:04;30.10;44.80
48208;DHT22;33997;53.278;9.708;2023-07-08T10:01:29;29.60;44.10
48208;DHT22;33997;53.278;9.708;2023-07-08T10:03:59;29.90;44.60
48208;DHT22;33997;53.278;9.708;2023-07-08T10:06:28;30.10;45.10
48208;DHT22;33997;53.278;9.708;2023-07-08T10:09:00;30.30;43.50
48208;DHT22;33997;53.278;9.708;2023-07-08T10:11:29;30.50;45.30
48208;DHT22;33997;53.278;9.708;2023-07-08T10:14:03;30.70;45.10
48208;DHT22;33997;53.278;9.708;2023-07-08T10:16:32;31.00;42.20
48208;DHT22;33997;53.278;9.708;2023-07-08T10:18:58;31.00;41.30
48208;DHT22;33997;53.278;9.708;2023-07-08T10:24:30;31.00;44.60
48208;DHT22;33997;53.278;9.708;2023-07-08T10:27:19;31.30;43.50
48208;DHT22;33997;53.278;9.708;2023-07-08T10:29:59;31.00;42.70
48208;DHT22;33997;53.278;9.708;2023-07-08T10:32:36;31.40;41.40
48208;DHT22;33997;53.278;9.708;2023-07-08T10:35:23;31.80;44.80
48208;DHT22;33997;53.278;9.708;2023-07-08T10:38:14;31.80;39.20
48208;DHT22;33997;53.278;9.708;2023-07-08T10:40:49;32.00;42.50
48208;DHT22;33997;53.278;9.708;2023-07-08T10:43:23;31.70;41.80
48208;DHT22;33997;53.278;9.708;2023-07-08T10:46:14;32.20;41.40
48208;DHT22;33997;53.278;9.708;2023-07-08T11:07:55;33.00;38.50
48208;DHT22;33997;53.278;9.708;2023-07-08T11:10:27;32.70;40.20
48208;DHT22;33997;53.278;9.708;2023-07-08T11:13:44;33.10;38.90
48208;DHT22;33997;53.278;9.708;2023-07-08T11:16:15;32.90;35.40
48208;DHT22;33997;53.278;9.708;2023-07-08T11:18:51;32.90;33.90
48208;DHT22;33997;53.278;9.708;2023-07-08T11:21:27;32.50;35.70
48208;DHT22;33997;53.278;9.708;2023-07-08T11:26:58;33.30;38.90
48208;DHT22;33997;53.278;9.708;2023-07-08T11:29:53;33.50;37.50
48208;DHT22;33997;53.278;9.708;2023-07-08T11:32:18;33.60;37.70
48208;DHT22;33997;53.278;9.708;2023-07-08T11:34:47;33.80;36.90
48208;DHT22;33997;53.278;9.708;2023-07-08T11:37:14;33.90;36.80
48208;DHT22;33997;53.278;9.708;2023-07-08T11:39:45;34.00;35.70
48208;DHT22;33997;53.278;9.708;2023-07-08T11:44:56;34.20;40.50
48208;DHT22;33997;53.278;9.708;2023-07-08T11:47:24;33.60;35.30
48208;DHT22;33997;53.278;9.708;2023-07-08T11:49:51;34.50;37.90
48208;DHT22;33997;53.278;9.708;2023-07-08T11:52:19;34.60;35.10
48208;DHT22;33997;53.278;9.708;2023-07-08T11:54:47;34.60;35.70
48208;DHT22;33997;53.278;9.708;2023-07-08T11:57:27;34.80;35.70
48208;DHT22;33997;53.278;9.708;2023-07-08T12:00:16;34.60;33.10
48208;DHT22;33997;53.278;9.708;2023-07-08T12:05:16;34.80;33.90
48208;DHT22;33997;53.278;9.708;2023-07-08T12:07:45;34.80;33.40
48208;DHT22;33997;53.278;9.708;2023-07-08T12:10:17;35.00;32.30
48208;DHT22;33997;53.278;9.708;2023-07-08T12:12:44;34.20;32.90
48208;DHT22;33997;53.278;9.708;2023-07-08T12:15:24;34.60;33.30
48208;DHT22;33997;53.278;9.708;2023-07-08T12:17:53;34.70;32.60
48208;DHT22;33997;53.278;9.708;2023-07-08T12:20:40;34.90;32.10
48208;DHT22;33997;53.278;9.708;2023-07-08T12:23:15;34.90;32.50
48208;DHT22;33997;53.278;9.708;2023-07-08T12:25:41;35.50;34.40
48208;DHT22;33997;53.278;9.708;2023-07-08T12:28:06;35.70;33.90
48208;DHT22;33997;53.278;9.708;2023-07-08T12:30:32;36.00;33.40
48208;DHT22;33997;53.278;9.708;2023-07-08T12:33:00;35.90;34.60
48208;DHT22;33997;53.278;9.708;2023-07-08T12:35:31;36.40;33.30
48208;DHT22;33997;53.278;9.708;2023-07-08T12:38:11;36.30;31.40
48208;DHT22;33997;53.278;9.708;2023-07-08T12:40:40;36.30;32.10
48208;DHT22;33997;53.278;9.708;2023-07-08T12:43:09;36.70;32.20
48208;DHT22;33997;53.278;9.708;2023-07-08T12:45:36;37.20;32.40
48208;DHT22;33997;53.278;9.708;2023-07-08T12:48:01;36.30;28.20
48208;DHT22;33997;53.278;9.708;2023-07-08T12:50:27;36.30;29.60
48208;DHT22;33997;53.278;9.708;2023-07-08T12:52:53;36.80;30.60
48208;DHT22;33997;53.278;9.708;2023-07-08T12:55:19;36.90;31.30
48208;DHT22;33997;53.278;9.708;2023-07-08T12:57:47;36.50;28.90
48208;DHT22;33997;53.278;9.708;2023-07-08T13:02:56;36.50;28.20
48208;DHT22;33997;53.278;9.708;2023-07-08T13:05:22;35.80;28.30
48208;DHT22;33997;53.278;9.708;2023-07-08T13:07:47;36.10;27.40
48208;DHT22;33997;53.278;9.708;2023-07-08T13:10:24;36.10;30.10
48208;DHT22;33997;53.278;9.708;2023-07-08T13:12:59;37.00;30.70
48208;DHT22;33997;53.278;9.708;2023-07-08T13:15:39;36.50;25.80
48208;DHT22;33997;53.278;9.708;2023-07-08T13:18:15;37.40;26.80
48208;DHT22;33997;53.278;9.708;2023-07-08T13:20:42;38.40;26.20
48208;DHT22;33997;53.278;9.708;2023-07-08T13:23:08;37.40;25.80
48208;DHT22;33997;53.278;9.708;2023-07-08T13:25:37;37.40;28.40
48208;DHT22;33997;53.278;9.708;2023-07-08T13:28:25;37.50;28.60
48208;DHT22;33997;53.278;9.708;2023-07-08T13:31:01;38.40;28.20
48208;DHT22;33997;53.278;9.708;2023-07-08T13:33:31;38.20;26.00
48208;DHT22;33997;53.278;9.708;2023-07-08T13:36:00;38.80;28.00
48208;DHT22;33997;53.278;9.708;2023-07-08T13:38:32;38.20;27.00
48208;DHT22;33997;53.278;9.708;2023-07-08T13:41:02;38.60;28.70
48208;DHT22;33997;53.278;9.708;2023-07-08T13:43:31;38.00;29.30
48208;DHT22;33997;53.278;9.708;2023-07-08T13:45:57;39.00;26.10
48208;DHT22;33997;53.278;9.708;2023-07-08T13:51:02;38.40;25.80
48208;DHT22;33997;53.278;9.708;2023-07-08T13:58:45;39.60;27.00
48208;DHT22;33997;53.278;9.708;2023-07-08T14:01:22;39.00;25.40
48208;DHT22;33997;53.278;9.708;2023-07-08T14:03:49;39.20;26.30
48208;DHT22;33997;53.278;9.708;2023-07-08T14:06:17;39.30;25.40
48208;DHT22;33997;53.278;9.708;2023-07-08T14:08:43;39.70;28.00
48208;DHT22;33997;53.278;9.708;2023-07-08T14:11:08;39.80;27.30
48208;DHT22;33997;53.278;9.708;2023-07-08T14:13:34;40.00;27.20
48208;DHT22;33997;53.278;9.708;2023-07-08T14:16:00;40.10;25.90
48208;DHT22;33997;53.278;9.708;2023-07-08T14:18:26;39.90;27.10
48208;DHT22;33997;53.278;9.708;2023-07-08T14:20:52;39.70;25.60
48208;DHT22;33997;53.278;9.708;2023-07-08T14:23:19;40.20;27.70
48208;DHT22;33997;53.278;9.708;2023-07-08T14:25:45;40.40;26.70
48208;DHT22;33997;53.278;9.708;2023-07-08T14:28:10;40.00;26.20
48208;DHT22;33997;53.278;9.708;2023-07-08T14:30:44;40.50;26.60
48208;DHT22;33997;53.278;9.708;2023-07-08T14:33:11;40.60;27.20
48208;DHT22;33997;53.278;9.708;2023-07-08T14:35:37;40.40;26.90
48208;DHT22;33997;53.278;9.708;2023-07-08T14:38:11;40.80;26.50
48208;DHT22;33997;53.278;9.708;2023-07-08T14:40:39;40.90;26.10
48208;DHT22;33997;53.278;9.708;2023-07-08T14:45:51;40.20;26.70
48208;DHT22;33997;53.278;9.708;2023-07-08T14:48:18;39.80;27.00
48208;DHT22;33997;53.278;9.708;2023-07-08T14:50:43;38.70;26.40
48208;DHT22;33997;53.278;9.708;2023-07-08T14:53:09;39.40;25.20
48208;DHT22;33997;53.278;9.708;2023-07-08T14:55:35;39.40;27.40
48208;DHT22;33997;53.278;9.708;2023-07-08T14:58:02;40.10;25.90
48208;DHT22;33997;53.278;9.708;2023-07-08T15:00:28;39.60;25.80
48208;DHT22;33997;53.278;9.708;2023-07-08T15:02:54;40.20;26.00
48208;DHT22;33997;53.278;9.708;2023-07-08T15:05:26;40.50;27.80
48208;DHT22;33997;53.278;9.708;2023-07-08T15:07:54;40.70;24.50
48208;DHT22;33997;53.278;9.708;2023-07-08T15:10:21;40.60;22.90
48208;DHT22;33997;53.278;9.708;2023-07-08T15:12:48;39.20;25.20
48208;DHT22;33997;53.278;9.708;2023-07-08T15:15:23;39.90;25.30
48208;DHT22;33997;53.278;9.708;2023-07-08T15:17:52;40.30;25.40
48208;DHT22;33997;53.278;9.708;2023-07-08T15:20:18;40.10;24.80
48208;DHT22;33997;53.278;9.708;2023-07-08T15:22:45;40.30;25.30
48208;DHT22;33997;53.278;9.708;2023-07-08T15:25:12;40.60;27.30
48208;DHT22;33997;53.278;9.708;2023-07-08T15:27:40;40.40;25.80
48208;DHT22;33997;53.278;9.708;2023-07-08T15:30:14;40.70;24.40
48208;DHT22;33997;53.278;9.708;2023-07-08T15:32:40;40.40;26.00
48208;DHT22;33997;53.278;9.708;2023-07-08T15:35:18;40.30;25.10
48208;DHT22;33997;53.278;9.708;2023-07-08T15:37:45;40.30;26.30
48208;DHT22;33997;53.278;9.708;2023-07-08T15:40:15;40.40;27.30
48208;DHT22;33997;53.278;9.708;2023-07-08T15:42:42;40.30;25.30
48208;DHT22;33997;53.278;9.708;2023-07-08T15:45:25;40.30;25.20
48208;DHT22;33997;53.278;9.708;2023-07-08T15:47:51;40.50;27.20
48208;DHT22;33997;53.278;9.708;2023-07-08T15:50:23;40.30;25.80
48208;DHT22;33997;53.278;9.708;2023-07-08T15:52:50;40.20;25.30
48208;DHT22;33997;53.278;9.708;2023-07-08T15:55:23;40.10;25.70
48208;DHT22;33997;53.278;9.708;2023-07-08T15:57:54;39.90;25.60
48208;DHT22;33997;53.278;9.708;2023-07-08T16:00:26;40.00;25.80
48208;DHT22;33997;53.278;9.708;2023-07-08T16:02:54;39.60;26.40
48208;DHT22;33997;53.278;9.708;2023-07-08T16:05:20;39.50;26.10
48208;DHT22;33997;53.278;9.708;2023-07-08T16:07:47;39.50;26.60
48208;DHT22;33997;53.278;9.708;2023-07-08T16:10:13;39.90;27.30
48208;DHT22;33997;53.278;9.708;2023-07-08T16:12:39;39.80;26.30
48208;DHT22;33997;53.278;9.708;2023-07-08T16:15:11;39.70;26.00
48208;DHT22;33997;53.278;9.708;2023-07-08T16:17:37;39.30;27.70
48208;DHT22;33997;53.278;9.708;2023-07-08T16:20:19;39.60;27.30
48208;DHT22;33997;53.278;9.708;2023-07-08T16:22:45;39.70;26.00
48208;DHT22;33997;53.278;9.708;2023-07-08T16:25:12;39.30;28.00
48208;DHT22;33997;53.278;9.708;2023-07-08T16:27:38;39.20;27.00
48208;DHT22;33997;53.278;9.708;2023-07-08T16:30:05;39.10;27.20
48208;DHT22;33997;53.278;9.708;2023-07-08T16:32:31;38.60;27.70